Etusivu
METAR-TAF:

METAR-TAF

Lentoasemat :

Olive Branch Airport

Olive Branch, Mississippi, Yhdysvallat

Leveyspiiri: 34-58-44N, Pituuspiiri: 089-47-13W, korkeus merenpinnasta: 122 m

Tämänhetkinen sää

Tämä raportti tehtiin 34 minuuttia sitten, kello 13.50 UTC
Tuuli 3 kn etelästä/lounaasta
Lämpötila 13°C
Kosteus 77%
Ilmanpaine 1012 hPa
Näkyvyys: 16.1 km
Muutamia pilviä 2400 ft:n korkeudessa
Hajanaisia pilviä 25000 ft:n korkeudessa

METAR: KOLV 191350Z 20003KT 10SM FEW024 SCT250 13/09 A2987

Aika: 09:24 (14:24 UTC)


TAF: puuttuu

Säähavainnot ja -ennusteet yli 4000 lentoasemalta (METAR- ja TAF-raportit).

Käytössä olevat sääasemat on merkitty karttaan keltaisilla ja punaisilla pisteillä.

Aseta hiiri pisteen päälle nähdäksesi sääaseman nimen.

Klikkaa sitten nähdäksesi säähavainnot ja -ennusteet.

Kartan vaihtaminen: klikkaa mustalla rastilla varustettuja vihreitä pisteitä, niin voit zoomata sisään; viivalla varustettua vihreää pistettä, niin voit zoomata ulos tai vihreitä nuolia, niin pääset viereisille kartoille.


METAR-TAF: